createdAt,value
2018-11-22T12:16:36.277Z,2.81
2018-11-22T12:19:03.231Z,3.06
2018-11-22T12:21:30.195Z,3.25
2018-11-22T12:23:57.112Z,2.75
2018-11-22T12:26:24.065Z,2.87
2018-11-22T12:28:51.027Z,2.94
2018-11-22T12:31:17.985Z,2.94
2018-11-22T12:33:49.633Z,3.19
2018-11-22T12:36:21.969Z,2.75
2018-11-22T12:38:48.929Z,3.06
2018-11-22T12:41:15.912Z,3.19
2018-11-22T12:43:43.195Z,2.62
2018-11-22T12:46:10.132Z,2.62
2018-11-22T12:48:37.276Z,2.69
2018-11-22T12:51:04.343Z,3.06
2018-11-22T12:53:31.246Z,3.25
2018-11-22T12:55:58.252Z,3.25
2018-11-22T13:03:20.392Z,3.00
2018-11-22T13:05:48.010Z,2.69
2018-11-22T13:08:15.019Z,3.00
2018-11-22T13:10:41.972Z,2.81
2018-11-22T13:13:09.014Z,2.94
2018-11-22T13:15:35.984Z,3.06
2018-11-22T13:18:02.918Z,3.12
2018-11-22T13:20:29.868Z,3.00
2018-11-22T13:22:56.820Z,2.75
2018-11-22T13:25:23.790Z,2.87
2018-11-22T13:27:50.728Z,2.69
2018-11-22T13:30:19.070Z,2.62
2018-11-22T13:32:46.804Z,3.25
2018-11-22T13:35:14.567Z,2.81
2018-11-22T13:37:42.844Z,3.00
2018-11-22T13:40:10.625Z,2.87
2018-11-22T13:42:37.967Z,3.00
2018-11-22T13:45:07.757Z,2.94
2018-11-22T13:47:34.718Z,3.00
2018-11-22T13:50:01.685Z,2.69
2018-11-22T13:52:28.669Z,2.37
2018-11-22T13:54:55.647Z,2.69
2018-11-22T13:57:22.618Z,2.69
2018-11-22T13:59:49.590Z,2.81
2018-11-22T14:02:16.543Z,2.56
2018-11-22T14:04:43.530Z,2.87
2018-11-22T14:07:10.526Z,2.69
2018-11-22T14:09:37.535Z,2.69
2018-11-22T14:12:04.659Z,3.12
2018-11-22T14:14:31.620Z,3.00
2018-11-22T14:16:58.526Z,2.87
2018-11-22T14:19:26.452Z,2.94
2018-11-22T14:21:53.433Z,2.94
2018-11-22T14:24:20.406Z,2.62
2018-11-22T14:26:47.388Z,2.75
2018-11-22T14:29:14.328Z,2.50
2018-11-22T14:31:41.254Z,2.75
2018-11-22T14:34:09.176Z,2.44
2018-11-22T14:36:37.150Z,2.62
2018-11-22T14:39:05.451Z,2.44
2018-11-22T14:41:32.434Z,2.62
2018-11-22T14:43:59.369Z,2.75
2018-11-22T14:46:27.194Z,2.56
2018-11-22T14:48:54.117Z,2.75
2018-11-22T14:51:27.005Z,2.44
2018-11-22T14:53:53.901Z,2.56
2018-11-22T14:56:20.904Z,2.87
2018-11-22T14:58:47.820Z,2.44
2018-11-22T15:01:14.860Z,2.44
2018-11-22T15:03:41.828Z,2.50
2018-11-22T15:06:08.810Z,2.31
2018-11-22T15:08:35.756Z,2.94
2018-11-22T15:11:03.726Z,2.37
2018-11-22T15:13:30.694Z,2.31
2018-11-22T15:15:57.670Z,2.56
2018-11-22T15:18:24.675Z,2.56
2018-11-22T15:20:51.928Z,2.56
2018-11-22T15:23:18.889Z,2.44
2018-11-22T15:25:45.984Z,2.69
2018-11-22T15:28:12.942Z,2.87
2018-11-22T15:30:39.949Z,2.31
2018-11-22T15:33:07.057Z,2.44
2018-11-22T15:35:34.052Z,2.50
2018-11-22T15:38:01.051Z,2.81
2018-11-22T15:40:27.992Z,2.69
2018-11-22T15:42:56.505Z,2.62
2018-11-22T15:45:24.794Z,2.37
2018-11-22T15:47:51.905Z,2.56
2018-11-22T15:50:20.314Z,2.62
2018-11-22T15:52:47.865Z,2.75
2018-11-22T15:55:20.883Z,2.37
2018-11-22T15:57:43.987Z,2.50
2018-11-22T16:00:14.154Z,2.75
2018-11-22T16:02:41.604Z,2.69
2018-11-22T16:05:09.557Z,2.56
2018-11-22T16:07:37.652Z,2.44
2018-11-22T16:10:07.567Z,2.50
2018-11-22T16:12:34.500Z,2.62
2018-11-22T16:15:01.479Z,2.37
2018-11-22T16:17:28.489Z,2.31
2018-11-22T16:19:55.472Z,2.50
2018-11-22T16:22:22.750Z,2.37
2018-11-22T16:24:49.906Z,2.25
2018-11-22T16:27:16.872Z,2.62
2018-11-22T16:29:44.110Z,2.62
2018-11-22T16:32:11.137Z,2.37
2018-11-22T16:34:38.839Z,2.37
2018-11-22T16:37:05.793Z,2.62
2018-11-22T16:39:32.811Z,2.44
2018-11-22T16:41:59.833Z,2.56
2018-11-22T16:44:26.856Z,2.37
2018-11-22T16:46:53.822Z,2.44
2018-11-22T16:49:21.069Z,2.50
2018-11-22T16:51:48.553Z,2.56
2018-11-22T16:54:15.515Z,2.19
2018-11-22T16:56:42.451Z,2.44
2018-11-22T16:59:09.436Z,2.44
2018-11-22T17:01:37.560Z,2.50
2018-11-22T17:04:04.980Z,2.56
2018-11-22T17:06:32.028Z,2.37
2018-11-22T17:08:58.934Z,2.12
2018-11-22T17:11:26.554Z,2.25
2018-11-22T17:13:54.267Z,2.37
2018-11-22T17:16:21.440Z,2.37
2018-11-22T17:18:48.372Z,2.25
2018-11-22T17:21:15.448Z,2.06
2018-11-22T17:23:42.488Z,2.56
2018-11-22T17:26:09.700Z,2.25
2018-11-22T17:28:37.189Z,2.12
2018-11-22T17:31:04.422Z,2.25
2018-11-22T17:33:31.395Z,2.19
2018-11-22T17:35:58.462Z,2.06
2018-11-22T17:38:25.394Z,2.25
2018-11-22T17:40:52.560Z,2.06
2018-11-22T17:43:19.425Z,2.25
2018-11-22T17:45:48.074Z,2.12
2018-11-22T17:48:15.116Z,2.31
2018-11-22T17:50:43.341Z,2.12
2018-11-22T17:53:10.943Z,2.06
2018-11-22T17:55:37.937Z,2.25
2018-11-22T17:58:04.995Z,2.00
2018-11-22T18:00:36.348Z,2.31
2018-11-22T18:03:04.408Z,2.00
2018-11-22T18:05:31.639Z,2.00
2018-11-22T18:07:58.760Z,2.00
2018-11-22T18:10:27.803Z,2.00
2018-11-22T18:12:55.347Z,2.00
2018-11-22T18:15:23.024Z,2.19
2018-11-22T18:17:50.548Z,1.94
2018-11-22T18:20:21.069Z,2.37
2018-11-22T18:22:59.290Z,1.94
2018-11-22T18:25:27.693Z,2.12
2018-11-22T18:27:55.277Z,2.12
2018-11-22T18:30:26.315Z,2.00
2018-11-22T18:32:55.688Z,2.00
2018-11-22T18:35:22.789Z,1.94
2018-11-22T18:37:49.718Z,2.00
2018-11-22T18:40:18.059Z,2.19
2018-11-22T18:42:45.862Z,2.19
2018-11-22T18:45:14.192Z,2.25
2018-11-22T18:47:42.346Z,2.25
2018-11-22T18:50:15.709Z,2.06
2018-11-22T18:52:38.296Z,2.06
2018-11-22T18:55:05.434Z,1.75
2018-11-22T18:57:32.398Z,2.31
2018-11-22T18:59:59.388Z,2.19
2018-11-22T19:02:26.393Z,2.44
2018-11-22T19:04:53.388Z,2.06
2018-11-22T19:07:20.376Z,1.87
2018-11-22T19:09:47.384Z,1.94
2018-11-22T19:12:14.388Z,2.19
2018-11-22T19:14:41.375Z,1.94
2018-11-22T19:17:08.324Z,2.00
2018-11-22T19:19:35.267Z,2.19
2018-11-22T19:22:02.260Z,1.81
2018-11-22T19:24:29.244Z,2.37
2018-11-22T19:26:56.294Z,2.19
2018-11-22T19:29:23.531Z,1.94
2018-11-22T19:31:50.511Z,2.19
2018-11-22T19:34:17.532Z,1.94
2018-11-22T19:36:44.676Z,1.94
2018-11-22T19:39:12.557Z,1.75
2018-11-22T19:41:39.585Z,1.81
2018-11-22T19:44:06.633Z,1.94
2018-11-22T19:46:33.619Z,2.12
2018-11-22T19:49:00.621Z,1.87
2018-11-22T19:51:27.564Z,1.87
2018-11-22T19:53:55.345Z,1.94
2018-11-22T19:56:22.333Z,1.94
2018-11-22T19:58:49.320Z,1.94
2018-11-22T20:01:16.302Z,2.12
2018-11-22T20:03:43.362Z,1.94
2018-11-22T20:06:10.540Z,1.81
2018-11-22T20:08:37.564Z,2.25
2018-11-22T20:11:05.329Z,2.00
2018-11-22T20:13:32.420Z,2.44
2018-11-22T20:15:59.671Z,2.19
2018-11-22T20:18:26.759Z,1.75
2018-11-22T20:20:53.891Z,1.87
2018-11-22T20:23:21.899Z,1.75
2018-11-22T20:25:48.074Z,2.06
2018-11-22T20:28:15.175Z,2.25
2018-11-22T20:30:43.813Z,2.25
2018-11-22T20:33:10.924Z,1.62
2018-11-22T20:35:37.932Z,2.00
2018-11-22T20:38:06.100Z,2.12
2018-11-22T20:40:33.220Z,1.69
2018-11-22T20:43:00.606Z,1.94
2018-11-22T20:45:28.419Z,2.19
2018-11-22T20:47:57.140Z,1.87
2018-11-22T20:50:25.342Z,1.75
2018-11-22T20:52:53.139Z,1.62
2018-11-22T20:55:24.637Z,1.87
2018-11-22T20:57:52.844Z,1.94
2018-11-22T21:00:21.333Z,1.81
2018-11-22T21:02:48.579Z,2.31
2018-11-22T21:05:16.469Z,2.25
2018-11-22T21:07:44.106Z,2.06
2018-11-22T21:10:13.555Z,1.75
2018-11-22T21:12:41.025Z,2.06
2018-11-22T21:15:10.931Z,1.75
2018-11-22T21:17:38.121Z,2.31
2018-11-22T21:20:06.371Z,1.87
2018-11-22T21:22:33.463Z,2.00
2018-11-22T21:25:00.537Z,2.19
2018-11-22T21:27:27.620Z,2.25
2018-11-22T21:29:54.664Z,2.31
2018-11-22T21:32:21.723Z,1.87
2018-11-22T21:34:49.735Z,1.87
2018-11-22T21:37:16.868Z,1.87
2018-11-22T21:39:43.930Z,1.94
2018-11-22T21:42:10.980Z,2.06
2018-11-22T21:44:37.939Z,1.62
2018-11-22T21:47:04.999Z,2.12
2018-11-22T21:49:31.975Z,1.87
2018-11-22T21:51:59.009Z,2.19
2018-11-22T21:54:25.997Z,1.94
2018-11-22T21:56:53.211Z,2.00
2018-11-22T21:59:20.223Z,2.06
2018-11-22T22:01:47.265Z,2.06
2018-11-22T22:04:14.199Z,2.19
2018-11-22T22:06:41.186Z,1.94
2018-11-22T22:09:08.324Z,1.87
2018-11-22T22:11:38.029Z,2.00
2018-11-22T22:14:05.024Z,1.94
2018-11-22T22:16:32.018Z,2.00
2018-11-22T22:18:58.989Z,1.94
2018-11-22T22:21:25.936Z,2.00
2018-11-22T22:23:52.897Z,2.25
2018-11-22T22:26:19.876Z,2.06
2018-11-22T22:28:47.838Z,1.94
2018-11-22T22:31:14.845Z,2.00
2018-11-22T22:33:41.775Z,2.00
2018-11-22T22:36:08.697Z,1.94
2018-11-22T22:38:35.645Z,1.94
2018-11-22T22:41:03.607Z,1.94
2018-11-22T22:43:30.534Z,1.94
2018-11-22T22:45:57.462Z,2.00
2018-11-22T22:48:24.411Z,2.37
2018-11-22T22:50:51.340Z,1.94
2018-11-22T22:53:18.247Z,2.12
2018-11-22T22:55:45.212Z,2.25
2018-11-22T22:58:12.124Z,2.25
2018-11-22T23:00:40.028Z,2.25
2018-11-22T23:03:07.400Z,2.37
2018-11-22T23:05:34.993Z,2.31
2018-11-22T23:08:02.445Z,2.31
2018-11-22T23:10:29.473Z,2.06
2018-11-22T23:12:57.020Z,2.00
2018-11-22T23:18:00.403Z,2.56
2018-11-22T23:20:28.707Z,2.12
2018-11-22T23:22:55.617Z,2.25
2018-11-22T23:25:23.635Z,2.06
2018-11-22T23:27:50.601Z,2.37
2018-11-22T23:30:20.369Z,2.12
2018-11-22T23:32:48.449Z,2.12
2018-11-22T23:35:15.842Z,2.25
2018-11-22T23:37:43.083Z,2.12
2018-11-22T23:40:11.935Z,2.19
2018-11-22T23:42:39.466Z,2.31
2018-11-22T23:45:07.398Z,2.31
2018-11-22T23:47:34.358Z,2.12
2018-11-22T23:50:01.311Z,2.06
2018-11-22T23:52:28.234Z,2.12
2018-11-22T23:54:55.132Z,2.12
2018-11-22T23:57:22.049Z,2.37
2018-11-22T23:59:49.002Z,2.19
